Normand Flipper — 9V6929 — position and weather

sailwx.info

Track history (hours):
 
Tides and Currents Weather Stations Pressure Air Temp Water Temp Dewpoint Dewpoint Depression Visibility Wind Speed Wind Dir Waves Ship Positions

Normand Flipper

Last reported at 2016-Sep-30 14:13 UTC. Time now 2016-Oct-01 07:01 UTC.
Position N 57°08' W 002°05'.

Length 89 m; draft 4.8 m.

Type: Other ship. MMSI: 566522000.

Date/timePositionNaut miles runAvg speedWind from/ knotsBaromVisibWave heightAir tempDewpointWater temp
2016-Sep-30 14:13N 57°08' W 002°05'0 0.0
2016-Sep-30 13:31N 57°08' W 002°05'0 0.1
2016-Sep-30 10:32N 57°09' W 002°05'0 0.0
2016-Sep-30 08:32N 57°09' W 002°05'0 0.0
2016-Sep-30 06:32N 57°09' W 002°05'0 0.0
2016-Sep-30 03:32N 57°09' W 002°05'0 0.0
2016-Sep-30 02:32N 57°09' W 002°05'0 0.0
2016-Sep-29 23:32N 57°09' W 002°05'0 0.0
2016-Sep-29 21:32N 57°09' W 002°05'0 0.0
2016-Sep-29 20:32N 57°09' W 002°05'0 0.0
2016-Sep-29 19:32N 57°09' W 002°05'0 0.0
2016-Sep-29 16:32N 57°09' W 002°05'0 0.0
2016-Sep-29 15:32N 57°09' W 002°05'0 0.0
2016-Sep-29 14:32N 57°09' W 002°05'0 0.0
2016-Sep-29 13:32N 57°09' W 002°05'0 0.0
2016-Sep-29 08:32N 57°09' W 002°05'0 0.0
2016-Sep-29 07:32N 57°09' W 002°05'0 0.0
2016-Sep-29 00:32N 57°09' W 002°05'0 0.0
2016-Sep-28 21:32N 57°09' W 002°05'0 0.0
2016-Sep-28 19:32N 57°09' W 002°05'0 0.0
2016-Sep-28 16:29N 57°09' W 002°05'0 0.0
2016-Sep-28 15:32N 57°09' W 002°05'0 0.0
2016-Sep-28 12:32N 57°09' W 002°05'0 0.0
2016-Sep-28 08:32N 57°09' W 002°05'0 0.0
2016-Sep-28 03:32N 57°09' W 002°05'0 0.0
2016-Sep-28 02:32N 57°09' W 002°05'0 0.0
2016-Sep-28 01:32N 57°09' W 002°05'0 0.0
2016-Sep-27 23:32N 57°09' W 002°05'0 0.0
2016-Sep-27 19:32N 57°09' W 002°05'0 0.0
2016-Sep-27 14:32N 57°09' W 002°05'0 0.0
2016-Sep-27 13:32N 57°09' W 002°05'0 0.0
2016-Sep-27 10:32N 57°09' W 002°05'0 0.0
2016-Sep-27 00:33N 57°08' W 002°05'30 0.9
2016-Sep-25 16:09N 57°35' W 001°40'610.9
2016-Sep-25 15:33N 57°29' W 001°40'24 8.1
2016-Sep-25 12:32N 57°08' W 002°05'0 0.0
2016-Sep-25 11:32N 57°08' W 002°05'0 0.0
2016-Sep-25 10:32N 57°08' W 002°05'0 0.0
2016-Sep-25 09:32N 57°08' W 002°05'0 0.0
2016-Sep-25 07:32N 57°08' W 002°05'0 0.0
2016-Sep-25 04:32N 57°08' W 002°05'0 0.0
2016-Sep-25 00:32N 57°08' W 002°05'0 0.0
2016-Sep-24 22:26N 57°08' W 002°05'0 0.0
2016-Sep-24 21:20N 57°08' W 002°05'0 0.0
2016-Sep-24 19:32N 57°08' W 002°05'0 0.0
2016-Sep-24 18:32N 57°08' W 002°05'0 0.0
2016-Sep-24 17:32N 57°08' W 002°05'0 0.0
2016-Sep-24 16:33N 57°08' W 002°05'27 6.8
2016-Sep-24 12:33N 57°32' W 001°40'0 0.0
2016-Sep-23 17:34N 57°32' W 001°40'5 0.3
2016-Sep-23 01:33N 57°28' W 001°40'6 0.5
2016-Sep-22 12:26N 57°33' W 001°38'  
Track history (hours):
 
Tides and Currents Weather Stations Pressure Air Temp Water Temp Dewpoint Dewpoint Depression Visibility Wind Speed Wind Dir Waves Ship Positions

Normand Flipper

Last reported at 2016-Sep-30 14:13 UTC. Time now 2016-Oct-01 07:01 UTC.
Position N 57°08' W 002°05'.

Length 89 m; draft 4.8 m.

Type: Other ship. MMSI: 566522000.

Date/timePositionNaut miles runAvg speedWind from/ knotsBaromVisibWave heightAir tempDewpointWater temp
2016-Sep-30 14:13N 57°08' W 002°05'0 0.0
2016-Sep-30 13:31N 57°08' W 002°05'0 0.1
2016-Sep-30 10:32N 57°09' W 002°05'0 0.0
2016-Sep-30 08:32N 57°09' W 002°05'0 0.0
2016-Sep-30 06:32N 57°09' W 002°05'0 0.0
2016-Sep-30 03:32N 57°09' W 002°05'0 0.0
2016-Sep-30 02:32N 57°09' W 002°05'0 0.0
2016-Sep-29 23:32N 57°09' W 002°05'0 0.0
2016-Sep-29 21:32N 57°09' W 002°05'0 0.0
2016-Sep-29 20:32N 57°09' W 002°05'0 0.0
2016-Sep-29 19:32N 57°09' W 002°05'0 0.0
2016-Sep-29 16:32N 57°09' W 002°05'0 0.0
2016-Sep-29 15:32N 57°09' W 002°05'0 0.0
2016-Sep-29 14:32N 57°09' W 002°05'0 0.0
2016-Sep-29 13:32N 57°09' W 002°05'0 0.0
2016-Sep-29 08:32N 57°09' W 002°05'0 0.0
2016-Sep-29 07:32N 57°09' W 002°05'0 0.0
2016-Sep-29 00:32N 57°09' W 002°05'0 0.0
2016-Sep-28 21:32N 57°09' W 002°05'0 0.0
2016-Sep-28 19:32N 57°09' W 002°05'0 0.0
2016-Sep-28 16:29N 57°09' W 002°05'0 0.0
2016-Sep-28 15:32N 57°09' W 002°05'0 0.0
2016-Sep-28 12:32N 57°09' W 002°05'0 0.0
2016-Sep-28 08:32N 57°09' W 002°05'0 0.0
2016-Sep-28 03:32N 57°09' W 002°05'0 0.0
2016-Sep-28 02:32N 57°09' W 002°05'0 0.0
2016-Sep-28 01:32N 57°09' W 002°05'0 0.0
2016-Sep-27 23:32N 57°09' W 002°05'0 0.0
2016-Sep-27 19:32N 57°09' W 002°05'0 0.0
2016-Sep-27 14:32N 57°09' W 002°05'0 0.0
2016-Sep-27 13:32N 57°09' W 002°05'0 0.0
2016-Sep-27 10:32N 57°09' W 002°05'0 0.0
2016-Sep-27 00:33N 57°08' W 002°05'30 0.9
2016-Sep-25 16:09N 57°35' W 001°40'610.9
2016-Sep-25 15:33N 57°29' W 001°40'24 8.1
2016-Sep-25 12:32N 57°08' W 002°05'0 0.0
2016-Sep-25 11:32N 57°08' W 002°05'0 0.0
2016-Sep-25 10:32N 57°08' W 002°05'0 0.0
2016-Sep-25 09:32N 57°08' W 002°05'0 0.0
2016-Sep-25 07:32N 57°08' W 002°05'0 0.0
2016-Sep-25 04:32N 57°08' W 002°05'0 0.0
2016-Sep-25 00:32N 57°08' W 002°05'0 0.0
2016-Sep-24 22:26N 57°08' W 002°05'0 0.0
2016-Sep-24 21:20N 57°08' W 002°05'0 0.0
2016-Sep-24 19:32N 57°08' W 002°05'0 0.0
2016-Sep-24 18:32N 57°08' W 002°05'0 0.0
2016-Sep-24 17:32N 57°08' W 002°05'0 0.0
2016-Sep-24 16:33N 57°08' W 002°05'27 6.8
2016-Sep-24 12:33N 57°32' W 001°40'0 0.0
2016-Sep-23 17:34N 57°32' W 001°40'5 0.3
2016-Sep-23 01:33N 57°28' W 001°40'6 0.5
2016-Sep-22 12:26N 57°33' W 001°38'  

Dump ship's entire track history